Latest Weather Observations for Armidale Airport

IDN60801

Issued at 8:35 pm EST Thursday 28 August 2014 (issued every 30 minutes, with the page automatically refreshed every 10 minutes)

About weather observations | Map of weather stations | Latest weather observations for NSW | Other Formats
Station Details ID: 056238 Name: ARMIDALE AIRPORT AWS Lat: -30.53 Lon: 151.62 Height: 1079.0 m
Data from the previous 72 hours. | See also: Recent months for locations in New South Wales
Date/Time
EST
Temp
°C
App
Temp
°C
Dew
Point
Rel
Hum
%
Delta-T
°C
Wind Press
QNH
hPa
Press
MSL
hPa
Rain
since 9 am
mm
Dir
 
Spd
km/h
Gust
km/h
Spd
kts
Gust
kts
28/08:30pm 5.9 3.0 4.5 91 0.6 SE 9 13 5 7 1025.0 - 0.4
28/08:00pm 6.7 3.9 5.0 89 0.8 SE 9 13 5 7 1024.8 1024.6 0.4
28/07:30pm 6.7 4.0 5.7 93 0.5 SSE 9 13 5 7 1024.8 - 0.4
28/07:00pm 6.9 3.6 6.3 96 0.3 SSE 13 15 7 8 1024.7 1024.5 0.4
28/06:31pm 7.5 4.4 7.1 97 0.2 S 13 17 7 9 1024.5 - 0.0
28/06:30pm 7.5 4.4 7.2 98 0.1 S 13 17 7 9 1024.5 - 0.0
28/06:10pm 7.5 3.2 6.9 96 0.3 SE 19 30 10 16 1024.4 - 0.0
28/06:00pm 8.0 3.3 6.1 88 0.9 ESE 20 32 11 17 1024.1 1023.9 0.0
28/05:30pm 8.6 6.3 5.5 81 1.5 SE 7 11 4 6 1023.7 - 0.0
28/05:00pm 8.6 4.7 5.5 81 1.5 SE 15 26 8 14 1023.5 1023.3 0.0
28/04:30pm 9.5 3.4 4.9 73 2.2 SSE 26 37 14 20 1023.1 - 0.0
28/04:00pm 11.4 6.4 4.8 64 3.2 SSE 20 28 11 15 1022.7 1022.5 0.0
28/03:30pm 11.4 6.4 4.6 63 3.3 SE 20 33 11 18 1022.6 - 0.0
28/03:00pm 10.8 5.2 5.6 70 2.5 SSE 24 33 13 18 1022.6 1022.3 0.0
28/02:30pm 11.7 6.2 6.0 68 2.8 SE 24 32 13 17 1022.2 - 0.0
28/02:00pm 9.5 4.4 7.6 88 1.0 SSE 24 35 13 19 1022.5 1022.2 0.0
28/01:30pm 11.3 6.1 5.4 67 2.9 SSE 22 30 12 16 1021.9 - 0.0
28/01:00pm 11.6 5.6 5.3 65 3.1 SE 26 35 14 19 1022.0 1021.8 0.0
28/12:30pm 11.2 5.1 6.5 73 2.4 SSE 28 37 15 20 1022.1 - 0.0
28/12:00pm 11.0 5.8 7.3 78 1.9 ESE 24 35 13 19 1022.2 1022.0 0.0
28/11:35am 10.6 4.4 6.2 74 2.2 SE 28 46 15 25 1022.5 - 0.0
28/11:30am 11.0 6.0 7.9 81 1.6 SE 24 37 13 20 1022.5 - 0.0
28/11:00am 10.3 4.5 6.3 76 2.0 SE 26 35 14 19 1022.5 1022.2 0.0
28/10:30am 10.7 5.4 7.0 78 1.9 SE 24 33 13 18 1022.5 - 0.0
28/10:00am 9.9 4.6 6.8 81 1.5 ESE 24 39 13 21 1022.6 1022.3 0.0
28/09:30am 9.5 4.6 6.8 83 1.3 SE 22 32 12 17 1022.2 - 0.0
28/09:00am 8.8 2.3 6.6 86 1.1 ESE 30 39 16 21 1022.2 1022.0 6.6
28/08:59am 8.8 2.3 6.6 86 1.1 ESE 30 39 16 21 1022.2 - 6.6
28/08:30am 8.2 2.6 7.0 92 0.6 SE 26 35 14 19 1021.9 - 6.6
28/08:00am 7.7 3.1 6.6 93 0.5 ESE 20 28 11 15 1021.8 1021.5 6.6
28/07:58am 7.7 3.1 6.6 93 0.5 ESE 20 30 11 16 1021.8 - 6.6
28/07:30am 7.7 2.3 6.5 92 0.6 ESE 24 33 13 18 1021.5 - 6.6
28/07:00am 7.2 2.6 6.3 94 0.4 ESE 20 30 11 16 1021.1 1020.9 6.6
28/06:52am 7.1 2.7 6.4 95 0.3 ESE 19 26 10 14 1021.0 - 6.6
28/06:30am 7.0 2.0 6.4 96 0.3 ESE 22 30 12 16 1020.7 - 6.6
28/06:00am 7.5 2.3 7.1 97 0.2 ESE 24 41 13 22 1020.4 1020.1 6.6
28/05:30am 7.5 1.9 7.1 97 0.2 ESE 26 35 14 19 1020.0 - 6.6
28/05:00am 7.2 2.7 6.9 98 0.1 ESE 20 28 11 15 1019.9 1019.6 6.6
28/04:30am 7.3 2.4 7.0 98 0.1 ESE 22 39 12 21 1019.9 - 6.6
28/04:08am 7.5 3.1 7.2 98 0.1 SE 20 30 11 16 1020.0 - 6.6
28/04:00am 7.5 2.7 7.2 98 0.1 ESE 22 32 12 17 1020.0 1019.7 6.6
28/03:57am 7.5 2.7 7.2 98 0.1 SE 22 33 12 18 1020.0 - 6.6
28/03:30am 7.6 3.2 7.3 98 0.1 SE 20 28 11 15 1019.9 - 6.6
28/03:00am 7.5 2.3 7.2 98 0.1 SE 24 35 13 19 1019.7 1019.4 6.6
28/02:59am 7.5 2.3 7.2 98 0.1 SE 24 35 13 19 1019.7 - 6.6
28/02:54am 7.5 2.3 7.2 98 0.1 SE 24 37 13 20 1019.7 - 6.6
28/02:30am 7.2 2.3 6.9 98 0.1 ESE 22 30 12 16 1019.8 - 6.6
28/02:03am 7.3 4.1 7.0 98 0.1 SSE 13 20 7 11 1020.1 - 6.6
28/02:02am 7.3 4.1 7.0 98 0.1 SSE 13 20 7 11 1020.1 - 6.6
28/02:00am 7.2 4.0 6.9 98 0.1 SSE 13 17 7 9 1020.1 1019.8 6.6
28/01:52am 7.2 4.0 6.9 98 0.1 SSE 13 20 7 11 1020.1 - 6.6
28/01:30am 7.2 3.6 6.9 98 0.1 SSE 15 24 8 13 1020.4 - 6.6
28/01:00am 7.3 2.0 7.0 98 0.1 SSE 24 33 13 18 1020.3 1020.0 6.6
28/12:30am 7.7 3.6 6.2 90 0.7 S 17 24 9 13 1020.6 - 6.6
28/12:00am 7.7 3.6 6.0 89 0.8 SSE 17 24 9 13 1020.4 1020.1 6.6
 
Date/Time
EST
Temp
°C
App
Temp
°C
Dew
Point
Rel
Hum
%
Delta-T
°C
Wind Press
QNH
hPa
Press
MSL
hPa
Rain
since 9 am
mm
Dir
 
Spd
km/h
Gust
km/h
Spd
kts
Gust
kts
27/11:30pm 7.6 3.1 6.1 90 0.7 SSE 19 26 10 14 1020.4 - 6.6
27/11:00pm 7.3 3.1 5.8 90 0.7 SSE 17 24 9 13 1020.4 1020.1 6.6
27/10:30pm 7.5 2.8 6.0 90 0.7 SSE 20 28 11 15 1020.5 - 6.6
27/10:00pm 7.4 2.8 5.5 88 0.9 SSE 19 26 10 14 1020.4 1020.1 6.6
27/09:30pm 7.5 2.3 5.6 88 0.9 SSE 22 30 12 16 1020.3 - 6.6
27/09:00pm 7.5 2.3 5.5 87 1.0 SSE 22 33 12 18 1020.3 1020.0 6.6
27/08:30pm 7.6 2.4 5.4 86 1.0 SSE 22 35 12 19 1020.1 - 6.6
27/08:00pm 7.8 3.0 5.6 86 1.1 SSE 20 30 11 16 1020.0 1019.7 6.6
27/07:30pm 7.8 2.9 5.1 83 1.3 SSE 20 28 11 15 1020.5 - 6.6
27/07:00pm 7.9 3.5 4.7 80 1.5 SSE 17 22 9 12 1020.0 1019.7 6.6
27/06:30pm 8.2 3.3 4.2 76 1.9 SSE 19 30 10 16 1019.5 - 6.6
27/06:00pm 8.3 3.1 3.8 73 2.1 SSE 20 28 11 15 1019.0 1018.7 6.6
27/05:30pm 8.4 3.3 4.0 74 2.0 SSE 20 28 11 15 1019.1 - 6.6
27/05:00pm 8.6 3.6 4.6 76 1.9 SSE 20 28 11 15 1018.8 1018.5 6.6
27/04:30pm 8.9 4.0 5.3 78 1.7 SSE 20 30 11 16 1018.6 - 6.6
27/04:00pm 9.3 4.5 5.5 77 1.8 SE 20 32 11 17 1018.6 1018.2 6.6
27/03:30pm 9.3 3.3 5.3 76 1.9 SSE 26 35 14 19 1018.4 - 6.6
27/03:00pm 9.4 4.8 6.3 81 1.5 SSE 20 33 11 18 1018.6 1018.2 6.6
27/02:30pm 8.9 4.0 7.0 88 0.9 SE 22 33 12 18 1018.9 - 6.6
27/02:25pm 9.0 4.3 7.6 91 0.7 SE 22 33 12 18 1018.9 - 6.6
27/02:00pm 8.4 3.8 8.1 98 0.2 SSE 22 35 12 19 1019.0 1018.7 6.6
27/01:42pm 7.9 3.7 7.6 98 0.2 SE 19 28 10 15 1018.9 - 6.6
27/01:30pm 7.9 3.2 7.6 98 0.2 SE 22 35 12 19 1019.1 - 6.6
27/01:03pm 7.3 2.0 6.7 96 0.3 SE 24 35 13 19 1019.3 - 6.6
27/01:00pm 7.4 1.8 7.0 97 0.2 SE 26 39 14 21 1019.3 1018.9 6.6
27/12:42pm 7.4 1.4 7.1 98 0.1 SE 28 44 15 24 1019.4 - 6.4
27/12:30pm 7.6 2.0 7.3 98 0.1 ESE 26 41 14 22 1019.6 - 6.4
27/12:17pm 7.6 2.4 7.3 98 0.1 ESE 24 37 13 20 1019.7 - 6.2
27/12:15pm 7.6 2.4 7.3 98 0.1 ESE 24 33 13 18 1019.7 - 6.2
27/12:00pm 7.6 2.8 7.3 98 0.1 SE 22 32 12 17 1020.0 1019.7 6.2
27/11:30am 7.2 2.3 7.1 99 0.0 SE 22 32 12 17 1020.3 - 6.2
27/11:25am 7.1 2.2 6.8 98 0.1 SE 22 32 12 17 1020.3 - 5.8
27/11:00am 6.8 0.3 6.5 98 0.1 ESE 30 41 16 22 1020.7 1020.4 5.4
27/10:50am 6.9 2.0 6.8 99 0.0 SE 22 32 12 17 1020.8 - 4.8
27/10:40am 7.0 1.3 6.7 98 0.1 ESE 26 35 14 19 1020.6 - 4.6
27/10:30am 7.0 2.1 6.9 99 0.0 ESE 22 35 12 19 1020.7 - 4.2
27/10:29am 7.0 2.1 6.9 99 0.0 ESE 22 35 12 19 1020.7 - 4.2
27/10:20am 7.1 1.8 7.0 99 0.0 ESE 24 32 13 17 1020.7 - 4.0
27/10:00am 7.0 2.5 6.9 99 0.0 SE 20 28 11 15 1020.6 1020.3 3.0
27/09:42am 6.5 3.2 6.4 99 0.0 SE 13 20 7 11 1020.5 - 1.8
27/09:40am 6.6 3.3 6.5 99 0.0 SE 13 20 7 11 1020.5 - 1.8
27/09:30am 6.3 3.7 6.2 99 0.0 SSE 9 17 5 9 1020.6 - 1.6
27/09:17am 6.3 4.1 6.2 99 0.0 ESE 7 11 4 6 1020.4 - 0.8
27/09:00am 6.0 3.4 5.9 99 0.0 NE 9 11 5 6 1020.1 1019.8 20.6
27/08:43am 5.9 2.1 5.8 99 0.0 ENE 15 17 8 9 1020.4 - 20.0
27/08:38am 5.9 2.5 5.9 100 0.0 NE 13 17 7 9 1020.4 - 19.8
27/08:35am 5.9 2.5 5.9 100 0.0 NE 13 17 7 9 1020.3 - 19.6
27/08:30am 5.9 2.9 5.9 100 0.0 NE 11 17 6 9 1020.0 - 19.6
27/08:10am 5.9 2.9 5.9 100 0.0 ENE 11 15 6 8 1019.8 - 18.8
27/08:00am 5.9 2.9 5.8 99 0.0 NE 11 15 6 8 1019.7 1019.4 18.2
27/07:32am 5.8 2.7 5.7 99 0.0 ENE 11 15 6 8 1019.7 - 16.4
27/07:30am 5.9 2.9 5.8 99 0.0 ENE 11 15 6 8 1019.7 - 16.4
27/07:10am 5.9 2.9 5.8 99 0.0 NE 11 13 6 7 1019.5 - 15.6
27/07:00am 5.9 3.2 5.8 99 0.0 ENE 9 11 5 6 1019.4 1019.0 15.2
27/06:34am 5.9 3.2 5.8 99 0.0 NE 9 13 5 7 1019.3 - 14.2
27/06:30am 5.9 3.2 5.8 99 0.0 NE 9 13 5 7 1019.3 - 14.0
27/06:18am 5.9 3.2 5.8 99 0.0 ENE 9 13 5 7 1019.1 - 13.4
27/06:12am 5.9 2.9 5.8 99 0.0 ENE 11 17 6 9 1019.0 - 13.2
27/06:00am 5.9 2.5 5.8 99 0.0 E 13 15 7 8 1018.9 1018.6 12.6
27/05:56am 5.9 2.5 5.8 99 0.0 E 13 15 7 8 1018.9 - 12.4
27/05:53am 5.9 2.4 5.6 98 0.1 E 13 15 7 8 1018.9 - 12.0
27/05:31am 6.0 0.8 5.7 98 0.1 E 22 28 12 15 1018.8 - 10.4
27/05:30am 6.0 0.5 5.7 98 0.1 E 24 35 13 19 1018.7 - 10.4
27/05:12am 6.2 0.7 5.9 98 0.1 E 24 35 13 19 1018.4 - 7.4
27/05:00am 6.5 1.5 6.4 99 0.0 ESE 22 32 12 17 1018.4 1018.0 6.8
27/04:39am 6.4 2.7 6.3 99 0.0 ESE 15 20 8 11 1018.4 - 6.6
27/04:30am 6.3 2.2 6.0 98 0.1 ESE 17 20 9 11 1018.4 - 6.6
27/04:16am 6.5 2.4 6.2 98 0.1 SE 17 26 9 14 1018.3 - 6.6
27/04:12am 6.5 2.4 6.2 98 0.1 SE 17 24 9 13 1018.3 - 6.6
27/04:00am 6.6 2.9 6.3 98 0.1 SSE 15 20 8 11 1018.1 1017.8 6.6
27/03:30am 6.6 2.9 6.2 97 0.2 SE 15 22 8 12 1018.3 - 6.6
27/03:00am 6.7 2.9 5.8 94 0.4 SE 15 26 8 14 1018.5 1018.1 6.6
27/02:30am 6.5 2.0 6.2 98 0.1 SE 19 26 10 14 1018.7 - 6.6
27/02:16am 6.4 2.3 6.1 98 0.1 SE 17 26 9 14 1018.8 - 6.6
27/02:00am 6.5 2.4 6.2 98 0.1 ESE 17 22 9 12 1019.0 1018.7 6.6
27/01:30am 7.1 2.6 6.8 98 0.1 E 20 30 11 16 1019.1 - 6.6
27/01:00am 7.4 3.1 7.1 98 0.1 SE 19 28 10 15 1019.0 1018.7 6.6
27/12:46am 7.6 2.8 7.3 98 0.1 SE 22 35 12 19 1019.4 - 6.6
27/12:42am 7.6 2.4 7.3 98 0.1 SE 24 35 13 19 1019.4 - 6.6
27/12:30am 7.8 2.3 7.5 98 0.2 SE 26 37 14 20 1019.5 - 6.6
27/12:00am 8.1 4.0 8.0 99 0.1 ESE 19 28 10 15 1019.9 1019.6 6.4
 
Date/Time
EST
Temp
°C
App
Temp
°C
Dew
Point
Rel
Hum
%
Delta-T
°C
Wind Press
QNH
hPa
Press
MSL
hPa
Rain
since 9 am
mm
Dir
 
Spd
km/h
Gust
km/h
Spd
kts
Gust
kts
26/11:47pm 8.0 4.3 7.9 99 0.1 ESE 17 22 9 12 1020.0 - 6.4
26/11:30pm 8.0 5.0 7.9 99 0.1 ESE 13 19 7 10 1020.0 - 6.4
26/11:23pm 7.9 4.9 7.8 99 0.1 ESE 13 17 7 9 1020.1 - 6.0
26/11:00pm 7.8 4.4 7.7 99 0.1 ESE 15 24 8 13 1020.1 1019.8 6.0
26/10:30pm 7.8 4.0 7.7 99 0.1 ESE 17 24 9 13 1020.0 - 6.0
26/10:00pm 7.6 4.2 7.5 99 0.0 E 15 20 8 11 1020.0 1019.7 6.0
26/09:30pm 7.5 3.3 7.4 99 0.0 E 19 24 10 13 1020.0 - 6.0
26/09:00pm 7.6 3.8 7.5 99 0.0 E 17 22 9 12 1020.0 1019.7 6.0
26/08:30pm 7.6 3.2 7.5 99 0.0 E 20 30 11 16 1020.3 - 6.0
26/08:00pm 7.6 3.4 7.5 99 0.0 E 19 26 10 14 1020.3 1020.0 6.0
26/07:36pm 7.5 3.7 7.4 99 0.0 E 17 24 9 13 1020.0 - 6.0
26/07:30pm 7.5 3.7 7.4 99 0.0 E 17 24 9 13 1020.0 - 6.0
26/07:00pm 7.5 3.1 7.2 98 0.1 E 20 33 11 18 1019.6 1019.3 6.0
26/06:50pm 7.5 3.1 7.4 99 0.0 E 20 32 11 17 1019.4 - 6.0
26/06:30pm 7.7 3.3 7.6 99 0.1 E 20 28 11 15 1019.4 - 6.0
26/06:02pm 7.8 4.0 7.7 99 0.1 ESE 17 20 9 11 1019.6 - 6.0
26/06:00pm 7.8 4.0 7.7 99 0.1 ESE 17 20 9 11 1019.6 1019.3 6.0
26/05:57pm 7.8 4.4 7.7 99 0.1 ESE 15 22 8 12 1019.6 - 6.0
26/05:30pm 7.6 3.4 7.3 98 0.1 ESE 19 28 10 15 1019.4 - 6.0
26/05:25pm 7.6 4.1 7.3 98 0.1 E 15 26 8 14 1019.3 - 6.0
26/05:00pm 7.4 4.2 6.7 95 0.3 ESE 13 17 7 9 1018.9 1018.6 5.8
26/04:30pm 7.3 2.7 6.6 95 0.3 ESE 20 26 11 14 1018.8 - 5.8
26/04:00pm 7.9 2.8 7.6 98 0.2 ESE 24 32 13 17 1018.9 1018.6 5.6
26/03:30pm 8.1 3.1 8.0 99 0.1 ESE 24 33 13 18 1018.8 - 5.0
26/03:16pm 8.0 1.4 7.7 98 0.2 ESE 32 44 17 24 1018.7 - 4.4
26/03:08pm 8.3 1.6 8.0 98 0.2 ESE 33 46 18 25 1018.6 - 4.0
26/03:00pm 8.8 2.2 8.7 99 0.1 ESE 33 44 18 24 1018.5 1018.1 3.6
26/02:39pm 9.2 3.3 8.9 98 0.2 ESE 30 39 16 21 1018.1 - 2.8
26/02:30pm 9.5 4.4 9.2 98 0.2 E 26 37 14 20 1018.3 - 2.0
26/02:28pm 9.4 4.3 9.1 98 0.2 E 26 35 14 19 1018.3 - 1.8
26/02:24pm 9.6 4.5 9.3 98 0.2 E 26 35 14 19 1018.4 - 1.8
26/02:03pm 9.9 4.9 9.6 98 0.2 E 26 33 14 18 1018.7 - 1.2
26/02:00pm 10.1 5.0 9.3 95 0.4 E 26 33 14 18 1018.7 1018.4 0.6
26/01:30pm 10.0 5.3 9.4 96 0.3 ESE 24 35 13 19 1018.5 - 0.4
26/01:00pm 12.4 7.8 8.1 75 2.2 ESE 22 33 12 18 1018.6 1018.2 0.0
26/12:30pm 12.8 8.5 7.9 72 2.6 ESE 20 28 11 15 1018.9 - 0.0
26/12:00pm 13.1 9.4 8.0 71 2.7 E 17 22 9 12 1019.4 1019.0 0.0
26/11:30am 11.8 7.4 7.5 75 2.2 ESE 20 26 11 14 1019.9 - 0.0
26/11:00am 12.4 8.3 8.5 77 2.1 ESE 20 30 11 16 1020.4 1020.1 0.0
26/10:30am 11.2 6.6 8.1 81 1.6 ESE 22 28 12 15 1020.6 - 0.0
26/10:13am 10.5 6.2 7.7 83 1.4 ESE 20 26 11 14 1020.9 - 0.0
26/10:00am 10.6 6.5 8.5 87 1.1 E 20 26 11 14 1021.0 1020.7 0.0
26/09:30am 9.6 5.3 8.0 90 0.8 E 20 24 11 13 1021.0 - 0.0
26/09:00am 9.4 5.6 9.1 98 0.2 E 19 30 10 16 1020.8 1020.5 11.2
26/08:30am 8.1 4.4 8.0 99 0.1 ENE 17 24 9 13 1020.8 - 11.2
26/08:00am 7.9 4.2 7.9 100 0.0 ENE 17 22 9 12 1020.7 1020.4 11.2
26/07:30am 7.1 2.8 7.1 100 0.0 ENE 19 26 10 14 1020.7 - 11.2
26/07:23am 6.8 2.5 6.8 100 0.0 E 19 26 10 14 1020.7 - 11.2
26/07:00am 6.8 3.6 6.8 100 0.0 ENE 13 17 7 9 1020.6 1020.3 11.2
26/06:59am 6.7 3.5 6.7 100 0.0 ENE 13 17 7 9 1020.6 - 11.2
26/06:30am 6.7 3.5 6.7 100 0.0 ENE 13 17 7 9 1020.6 - 11.2
26/06:22am 6.8 3.6 6.8 100 0.0 ENE 13 17 7 9 1020.5 - 11.2
26/06:04am 6.8 2.8 6.8 100 0.0 E 17 22 9 12 1020.4 - 11.2
26/06:00am 6.7 2.7 6.7 100 0.0 E 17 24 9 13 1020.4 1020.1 11.2
26/05:50am 6.7 2.3 6.7 100 0.0 E 19 24 10 13 1020.3 - 11.2
26/05:30am 6.5 2.5 6.5 100 0.0 E 17 24 9 13 1020.0 - 11.2
26/05:00am 6.3 2.6 6.3 100 0.0 E 15 20 8 11 1019.8 1019.5 11.2
26/04:39am 6.2 2.1 6.1 99 0.0 E 17 20 9 11 1019.6 - 11.2
26/04:30am 6.2 2.5 6.1 99 0.0 E 15 17 8 9 1019.6 - 11.2
26/04:00am 6.2 2.1 6.1 99 0.0 E 17 20 9 11 1019.5 1019.2 11.2
26/03:30am 6.4 2.3 6.3 99 0.0 ENE 17 22 9 12 1019.5 - 11.2
26/03:00am 6.5 2.4 6.4 99 0.0 ENE 17 20 9 11 1019.7 1019.4 11.2
26/02:30am 6.4 2.3 6.3 99 0.0 ENE 17 20 9 11 1019.8 - 11.2
26/02:00am 6.8 2.4 6.5 98 0.1 E 19 24 10 13 1020.1 1019.8 11.2
26/01:30am 7.2 3.3 6.9 98 0.1 ENE 17 22 9 12 1020.5 - 11.2
26/01:00am 7.2 3.3 7.1 99 0.0 ENE 17 20 9 11 1020.8 1020.5 11.2
26/12:30am 7.0 3.8 6.9 99 0.0 E 13 20 7 11 1021.1 - 11.2
26/12:22am 6.7 3.4 6.6 99 0.0 E 13 15 7 8 1021.1 - 11.2
26/12:00am 6.2 2.8 6.1 99 0.0 ENE 13 15 7 8 1021.3 1021.0 11.2
 
Date/Time
EST
Temp
°C
App
Temp
°C
Dew
Point
Rel
Hum
%
Delta-T
°C
Wind Press
QNH
hPa
Press
MSL
hPa
Rain
since 9 am
mm
Dir
 
Spd
km/h
Gust
km/h
Spd
kts
Gust
kts
25/11:30pm 7.0 3.8 6.9 99 0.0 NE 13 17 7 9 1021.5 - 11.2
25/11:00pm 7.6 4.9 7.5 99 0.0 ENE 11 15 6 8 1021.8 1021.5 11.2
25/10:43pm 7.8 5.2 7.7 99 0.1 ENE 11 15 6 8 1022.0 - 11.2
25/10:30pm 7.9 4.9 7.8 99 0.1 ENE 13 15 7 8 1022.1 - 11.2
25/10:29pm 7.9 4.9 7.8 99 0.1 ENE 13 15 7 8 1022.1 - 11.2
25/10:00pm 8.0 3.9 7.9 99 0.1 ENE 19 20 10 11 1021.9 1021.7 11.2
25/09:30pm 8.1 5.6 8.0 99 0.1 ENE 11 13 6 7 1022.5 - 11.0
25/09:00pm 8.2 5.7 8.1 99 0.1 ENE 11 15 6 8 1022.8 1022.6 10.8
25/08:59pm 8.2 5.7 8.1 99 0.1 ENE 11 15 6 8 1022.8 - 10.8
25/08:38pm 8.2 6.0 7.9 98 0.2 E 9 13 5 7 1023.0 - 9.6

Other Formats:

Comma delimited format used in spreadsheet applications
http://www.bom.gov.au/fwo/IDN60801/IDN60801.95773.axf

JavaScript Object Notation format (JSON) in row-major order
http://www.bom.gov.au/fwo/IDN60801/IDN60801.95773.json